createdAt,value
2019-03-30T00:03:22.847Z,11.50
2019-03-30T00:09:27.456Z,11.70
2019-03-30T00:15:32.147Z,11.00
2019-03-30T00:21:36.708Z,10.73
2019-03-30T00:27:41.268Z,13.57
2019-03-30T00:33:45.832Z,13.77
2019-03-30T00:39:50.400Z,10.43
2019-03-30T00:45:54.963Z,10.30
2019-03-30T00:51:59.583Z,13.23
2019-03-30T00:58:04.164Z,12.27
2019-03-30T01:04:09.372Z,13.30
2019-03-30T01:10:14.364Z,12.90
2019-03-30T01:16:18.916Z,10.90
2019-03-30T01:22:23.556Z,11.47
2019-03-30T01:28:28.183Z,12.70
2019-03-30T01:34:32.739Z,11.73
2019-03-30T01:40:37.294Z,11.10
2019-03-30T01:46:41.862Z,12.07
2019-03-30T01:52:46.435Z,13.13
2019-03-30T01:58:51.132Z,12.80
2019-03-30T02:04:55.705Z,12.97
2019-03-30T02:11:00.341Z,12.60
2019-03-30T02:17:05.045Z,13.30
2019-03-30T02:23:09.676Z,12.93
2019-03-30T02:29:14.452Z,14.87
2019-03-30T02:35:19.009Z,13.63
2019-03-30T02:41:23.711Z,13.20
2019-03-30T02:47:29.019Z,12.23
2019-03-30T02:53:33.599Z,11.30
2019-03-30T02:59:38.134Z,13.77
2019-03-30T03:05:42.781Z,14.20
2019-03-30T03:11:47.323Z,12.47
2019-03-30T03:17:51.880Z,14.90
2019-03-30T03:23:56.580Z,14.00
2019-03-30T03:30:01.302Z,13.00
2019-03-30T03:36:06.107Z,13.80
2019-03-30T03:42:10.681Z,14.27
2019-03-30T03:48:15.261Z,11.90
2019-03-30T03:54:20.259Z,12.77
2019-03-30T04:00:25.068Z,13.00
2019-03-30T04:06:31.250Z,11.57
2019-03-30T04:12:38.085Z,15.60
2019-03-30T04:18:42.726Z,18.40
2019-03-30T04:24:47.507Z,16.90
2019-03-30T04:30:52.138Z,16.23
2019-03-30T04:36:56.704Z,17.17
2019-03-30T04:43:01.269Z,16.30
2019-03-30T04:49:05.832Z,17.00
2019-03-30T04:55:10.451Z,16.70
2019-03-30T05:01:15.010Z,15.10
2019-03-30T05:07:19.571Z,14.13
2019-03-30T05:13:24.124Z,14.57
2019-03-30T05:19:31.554Z,17.00
2019-03-30T05:25:36.289Z,15.80
2019-03-30T05:31:40.848Z,12.43
2019-03-30T05:37:45.496Z,12.70
2019-03-30T05:43:50.057Z,12.90
2019-03-30T05:49:54.597Z,13.57
2019-03-30T05:55:59.142Z,13.97
2019-03-30T06:02:03.786Z,16.27
2019-03-30T06:08:08.364Z,15.20
2019-03-30T06:14:12.996Z,15.50
2019-03-30T06:20:17.790Z,14.87
2019-03-30T06:26:22.342Z,15.00
2019-03-30T06:32:26.918Z,16.43
2019-03-30T06:38:31.480Z,16.97
2019-03-30T06:44:36.042Z,21.77
2019-03-30T06:50:40.660Z,16.00
2019-03-30T06:56:45.224Z,16.50
2019-03-30T07:02:49.963Z,16.10
2019-03-30T07:08:57.271Z,17.30
2019-03-30T07:15:04.038Z,18.50
2019-03-30T07:21:08.665Z,18.60
2019-03-30T07:27:13.249Z,19.77
2019-03-30T07:33:17.826Z,17.07
2019-03-30T07:39:22.398Z,17.83
2019-03-30T07:45:26.980Z,17.83
2019-03-30T07:51:33.381Z,16.47
2019-03-30T07:57:38.031Z,15.60
2019-03-30T08:03:42.679Z,16.50
2019-03-30T08:09:47.419Z,16.17
2019-03-30T08:15:51.982Z,15.20
2019-03-30T08:21:56.588Z,16.40
2019-03-30T08:28:01.153Z,15.43
2019-03-30T08:34:05.732Z,17.33
2019-03-30T08:40:10.470Z,15.00
2019-03-30T08:46:15.032Z,15.40
2019-03-30T08:52:19.607Z,17.27
2019-03-30T08:58:24.182Z,15.90
2019-03-30T09:04:28.767Z,13.97
2019-03-30T09:10:33.337Z,15.00
2019-03-30T09:16:37.921Z,15.70
2019-03-30T09:22:42.576Z,16.17
2019-03-30T09:28:47.213Z,16.93
2019-03-30T09:34:51.795Z,18.00
2019-03-30T09:40:56.371Z,17.40
2019-03-30T09:47:01.017Z,17.57
2019-03-30T09:53:05.853Z,18.30
2019-03-30T09:59:10.438Z,18.60
2019-03-30T10:05:15.068Z,17.93
2019-03-30T10:11:19.721Z,18.00
2019-03-30T10:17:24.277Z,17.50
2019-03-30T10:23:28.856Z,18.70
2019-03-30T10:29:33.440Z,15.87
2019-03-30T10:35:38.097Z,16.43
2019-03-30T10:41:42.739Z,16.33
2019-03-30T10:47:47.297Z,15.30
2019-03-30T10:53:51.853Z,14.50
2019-03-30T10:59:56.426Z,13.80
2019-03-30T11:06:00.983Z,14.43
2019-03-30T11:12:05.711Z,13.80
2019-03-30T11:18:10.339Z,14.60
2019-03-30T11:24:14.899Z,13.77
2019-03-30T11:30:19.609Z,9.47
2019-03-30T11:36:24.259Z,9.87
2019-03-30T11:42:28.810Z,10.83
2019-03-30T11:48:33.389Z,9.93
2019-03-30T11:54:37.953Z,10.17
2019-03-30T12:00:42.747Z,8.67
2019-03-30T12:06:47.338Z,7.90
2019-03-30T12:12:51.904Z,8.87
2019-03-30T12:18:56.471Z,8.30
2019-03-30T12:25:01.104Z,8.37
2019-03-30T12:31:05.743Z,8.20
2019-03-30T12:37:10.319Z,8.93
2019-03-30T12:43:14.955Z,7.73
2019-03-30T12:49:19.520Z,8.13
2019-03-30T12:55:24.099Z,9.07
2019-03-30T13:01:28.695Z,8.07
2019-03-30T13:07:33.339Z,6.90
2019-03-30T13:13:37.981Z,6.30
2019-03-30T13:19:42.549Z,7.77
2019-03-30T13:25:47.123Z,6.40
2019-03-30T13:31:51.795Z,6.40
2019-03-30T13:37:56.397Z,6.77
2019-03-30T13:44:01.037Z,6.90
2019-03-30T13:50:07.817Z,6.60
2019-03-30T13:56:17.413Z,6.37
2019-03-30T14:02:18.744Z,6.37
2019-03-30T14:08:23.288Z,6.93
2019-03-30T14:14:29.050Z,7.83
2019-03-30T14:20:33.673Z,7.20
2019-03-30T14:26:38.250Z,8.70
2019-03-30T14:32:43.048Z,7.63
2019-03-30T14:38:47.660Z,7.83
2019-03-30T14:44:52.280Z,8.33
2019-03-30T14:50:56.924Z,8.80
2019-03-30T14:57:01.508Z,7.47
2019-03-30T15:03:06.080Z,8.60
2019-03-30T15:09:10.843Z,8.53
2019-03-30T15:15:15.733Z,7.77
2019-03-30T15:21:20.320Z,7.17
2019-03-30T15:27:24.929Z,6.97
2019-03-30T15:33:29.506Z,7.40
2019-03-30T15:39:34.088Z,6.20
2019-03-30T15:45:38.713Z,7.07
2019-03-30T15:51:43.306Z,6.60
2019-03-30T15:57:47.953Z,6.40
2019-03-30T16:03:52.593Z,5.93
2019-03-30T16:09:57.227Z,6.13
2019-03-30T16:16:01.795Z,6.47
2019-03-30T16:22:06.422Z,6.20
2019-03-30T16:28:11.057Z,6.53
2019-03-30T16:34:15.810Z,6.63
2019-03-30T16:40:20.467Z,6.90
2019-03-30T16:46:26.351Z,6.43
2019-03-30T16:52:30.969Z,6.63
2019-03-30T16:58:35.629Z,8.80
2019-03-30T17:04:40.175Z,7.27
2019-03-30T17:10:44.823Z,14.50
2019-03-30T17:16:49.445Z,9.83
2019-03-30T17:22:54.117Z,15.57
2019-03-30T17:28:58.753Z,10.73
2019-03-30T17:35:03.592Z,11.67
2019-03-30T17:41:08.310Z,9.70
2019-03-30T17:47:12.883Z,10.80
2019-03-30T17:53:17.455Z,12.10
2019-03-30T17:59:23.727Z,11.00
2019-03-30T18:05:28.378Z,12.03
2019-03-30T18:11:32.963Z,12.73
2019-03-30T18:17:37.536Z,11.30
2019-03-30T18:23:42.133Z,15.43
2019-03-30T18:29:46.829Z,17.10
2019-03-30T18:35:51.524Z,17.33
2019-03-30T18:41:56.122Z,15.90
2019-03-30T18:48:15.878Z,13.97
2019-03-30T18:54:22.602Z,12.77
2019-03-30T19:00:28.361Z,13.57
2019-03-30T19:06:32.913Z,14.57
2019-03-30T19:12:37.818Z,15.13
2019-03-30T19:18:42.399Z,14.80
2019-03-30T19:24:46.978Z,16.47
2019-03-30T19:30:51.607Z,15.03
2019-03-30T19:36:56.182Z,15.60
2019-03-30T19:43:00.764Z,16.93
2019-03-30T19:49:05.406Z,15.33
2019-03-30T19:55:10.144Z,15.90
2019-03-30T20:01:14.793Z,14.20
2019-03-30T20:07:19.438Z,15.27
2019-03-30T20:13:23.996Z,15.60
2019-03-30T20:19:30.221Z,15.43
2019-03-30T20:25:34.865Z,15.57
2019-03-30T20:31:39.474Z,15.90
2019-03-30T20:37:44.031Z,17.23
2019-03-30T20:43:48.634Z,16.60
2019-03-30T20:49:53.191Z,17.00
2019-03-30T20:55:57.858Z,16.70
2019-03-30T21:02:02.511Z,16.20
2019-03-30T21:08:07.081Z,16.80
2019-03-30T21:14:11.655Z,17.13
2019-03-30T21:20:16.465Z,16.57
2019-03-30T21:26:21.094Z,16.60
2019-03-30T21:32:25.717Z,16.70
2019-03-30T21:38:30.284Z,15.90
2019-03-30T21:44:35.059Z,17.70
2019-03-30T21:50:39.696Z,16.77
2019-03-30T21:56:44.357Z,17.50
2019-03-30T22:02:48.925Z,17.60
2019-03-30T22:08:54.822Z,17.70
2019-03-30T22:14:59.538Z,16.67
2019-03-30T22:21:04.084Z,17.20
2019-03-30T22:27:08.635Z,17.07
2019-03-30T22:33:13.197Z,15.93
2019-03-30T22:39:17.763Z,19.17
2019-03-30T22:45:22.336Z,18.97
2019-03-30T22:51:26.877Z,17.70
2019-03-30T22:57:31.431Z,19.40
2019-03-30T23:03:36.016Z,18.10
2019-03-30T23:09:40.628Z,17.67
2019-03-30T23:15:45.340Z,15.90
2019-03-30T23:21:49.906Z,17.57
2019-03-30T23:27:54.467Z,18.33
2019-03-30T23:33:59.021Z,17.50
2019-03-30T23:40:04.662Z,17.60
2019-03-30T23:46:09.320Z,18.30
2019-03-30T23:52:13.945Z,18.10
2019-03-30T23:58:18.510Z,17.70
